createdAt,value
2023-03-13T00:01:39.086Z,72.90
2023-03-13T00:04:06.400Z,72.80
2023-03-13T00:06:36.675Z,72.60
2023-03-13T00:09:15.675Z,72.30
2023-03-13T00:11:43.692Z,72.30
2023-03-13T00:14:10.588Z,72.00
2023-03-13T00:16:37.921Z,71.80
2023-03-13T00:19:06.078Z,71.70
2023-03-13T00:21:33.363Z,71.40
2023-03-13T00:24:00.853Z,71.40
2023-03-13T00:26:29.100Z,71.20
2023-03-13T00:28:56.168Z,71.00
2023-03-13T00:31:25.509Z,70.90
2023-03-13T00:33:54.943Z,70.70
2023-03-13T00:36:24.257Z,70.40
2023-03-13T00:38:52.536Z,70.30
2023-03-13T00:41:30.708Z,70.50
2023-03-13T00:43:58.177Z,70.50
2023-03-13T00:46:27.394Z,70.60
2023-03-13T00:48:54.202Z,70.60
2023-03-13T00:51:24.050Z,70.50
2023-03-13T00:53:50.853Z,70.50
2023-03-13T00:56:19.983Z,70.70
2023-03-13T00:58:48.836Z,70.50
2023-03-13T01:01:25.688Z,71.00
2023-03-13T01:03:58.298Z,71.60
2023-03-13T01:06:31.394Z,71.40
2023-03-13T01:08:59.027Z,71.70
2023-03-13T01:11:28.611Z,71.70
2023-03-13T01:13:57.454Z,71.70
2023-03-13T01:16:25.944Z,71.30
2023-03-13T01:18:55.203Z,71.80
2023-03-13T01:21:23.842Z,71.70
2023-03-13T01:23:52.493Z,72.20
2023-03-13T01:26:19.864Z,72.60
2023-03-13T01:28:46.905Z,74.20
2023-03-13T01:31:22.659Z,73.40
2023-03-13T01:33:55.344Z,74.10
2023-03-13T01:36:22.753Z,74.60
2023-03-13T01:38:51.585Z,75.10
2023-03-13T01:41:19.618Z,75.00
2023-03-13T01:43:46.963Z,75.10
2023-03-13T01:46:16.450Z,74.80
2023-03-13T01:48:54.048Z,74.20
2023-03-13T01:51:37.378Z,73.70
2023-03-13T01:54:10.532Z,74.20
2023-03-13T01:56:47.586Z,74.40
2023-03-13T01:59:17.601Z,74.50
2023-03-13T02:01:47.306Z,74.60
2023-03-13T02:04:16.768Z,75.40
2023-03-13T02:06:47.863Z,75.40
2023-03-13T02:09:19.729Z,75.00
2023-03-13T02:12:01.028Z,75.60
2023-03-13T02:14:30.867Z,75.50
2023-03-13T02:16:57.685Z,74.70
2023-03-13T02:19:49.666Z,74.30
2023-03-13T02:22:31.612Z,74.50
2023-03-13T02:25:24.058Z,74.30
2023-03-13T02:27:55.150Z,74.40
2023-03-13T02:30:22.328Z,74.10
2023-03-13T02:32:49.452Z,74.10
2023-03-13T02:35:20.226Z,74.00
2023-03-13T02:37:51.844Z,73.90
2023-03-13T02:40:24.559Z,73.20
2023-03-13T02:42:53.506Z,72.30
2023-03-13T02:45:20.298Z,71.70
2023-03-13T02:47:47.223Z,71.40
2023-03-13T02:50:14.564Z,71.20
2023-03-13T02:52:48.824Z,70.30
2023-03-13T02:55:22.576Z,70.30
2023-03-13T02:57:49.397Z,69.20
2023-03-13T03:00:17.377Z,68.50
2023-03-13T03:02:45.073Z,68.00
2023-03-13T03:05:14.379Z,66.80
2023-03-13T03:07:41.126Z,66.50
2023-03-13T03:10:08.599Z,66.20
2023-03-13T03:12:35.361Z,65.90
2023-03-13T03:15:04.683Z,65.80
2023-03-13T03:17:31.444Z,65.80
2023-03-13T03:19:58.123Z,65.70
2023-03-13T03:22:24.884Z,65.60
2023-03-13T03:24:51.562Z,65.90
2023-03-13T03:27:18.297Z,66.20
2023-03-13T03:29:45.067Z,65.90
2023-03-13T03:32:11.767Z,65.50
2023-03-13T03:34:38.480Z,65.80
2023-03-13T03:37:05.220Z,65.10
2023-03-13T03:39:32.054Z,64.80
2023-03-13T03:41:58.770Z,64.80
2023-03-13T03:44:25.560Z,64.40
2023-03-13T03:46:52.238Z,64.70
2023-03-13T03:49:19.011Z,64.00
2023-03-13T03:51:46.169Z,64.20
2023-03-13T03:54:12.874Z,64.00
2023-03-13T03:56:39.554Z,63.60
2023-03-13T03:59:06.273Z,63.20
2023-03-13T04:01:32.961Z,63.40
2023-03-13T04:03:59.696Z,62.70
2023-03-13T04:06:26.395Z,62.70
2023-03-13T04:08:53.103Z,62.10
2023-03-13T04:11:20.222Z,61.90
2023-03-13T04:13:47.043Z,62.10
2023-03-13T04:16:13.818Z,62.00
2023-03-13T04:18:40.524Z,61.40
2023-03-13T04:21:07.295Z,61.20
2023-03-13T04:23:33.989Z,61.10
2023-03-13T04:26:00.686Z,61.30
2023-03-13T04:28:27.371Z,61.00
2023-03-13T04:30:57.373Z,60.50
2023-03-13T04:33:25.434Z,60.50
2023-03-13T04:35:52.173Z,60.50
2023-03-13T04:38:18.976Z,61.00
2023-03-13T04:40:46.916Z,60.60
2023-03-13T04:43:13.647Z,60.90
2023-03-13T04:45:40.344Z,60.60
2023-03-13T04:48:07.092Z,60.40
2023-03-13T04:50:33.803Z,59.70
2023-03-13T04:53:00.515Z,60.00
2023-03-13T04:55:27.220Z,60.90
2023-03-13T04:57:53.912Z,59.60
2023-03-13T05:00:20.881Z,60.00
2023-03-13T05:02:47.648Z,59.80
2023-03-13T05:05:14.445Z,59.80
2023-03-13T05:07:41.255Z,59.70
2023-03-13T05:10:08.399Z,59.80
2023-03-13T05:12:35.203Z,59.90
2023-03-13T05:15:01.917Z,59.90
2023-03-13T05:17:28.649Z,60.30
2023-03-13T05:19:55.393Z,60.70
2023-03-13T05:22:22.091Z,60.20
2023-03-13T05:24:48.770Z,60.00
2023-03-13T05:27:15.517Z,60.30
2023-03-13T05:29:42.283Z,59.60
2023-03-13T05:32:09.037Z,59.30
2023-03-13T05:34:35.764Z,58.90
2023-03-13T05:37:02.542Z,59.20
2023-03-13T05:39:29.385Z,59.10
2023-03-13T05:41:56.111Z,58.70
2023-03-13T05:44:22.833Z,59.30
2023-03-13T05:46:49.614Z,59.40
2023-03-13T05:49:16.433Z,59.50
2023-03-13T05:51:43.133Z,58.80
2023-03-13T05:54:09.827Z,59.30
2023-03-13T05:56:36.489Z,58.50
2023-03-13T05:59:03.317Z,58.00
2023-03-13T06:01:29.997Z,57.20
2023-03-13T06:03:56.833Z,55.10
2023-03-13T06:06:23.626Z,54.50
2023-03-13T06:08:53.152Z,54.30
2023-03-13T06:11:19.922Z,54.30
2023-03-13T06:13:46.668Z,53.80
2023-03-13T06:16:13.422Z,53.00
2023-03-13T06:18:40.279Z,52.40
2023-03-13T06:21:07.009Z,52.40
2023-03-13T06:23:33.792Z,51.90
2023-03-13T06:26:01.466Z,52.30
2023-03-13T06:28:28.986Z,52.10
2023-03-13T06:31:00.514Z,51.40
2023-03-13T06:33:27.411Z,50.40
2023-03-13T06:35:56.889Z,50.00
2023-03-13T06:38:28.038Z,50.40
2023-03-13T06:40:54.843Z,49.50
2023-03-13T06:43:21.863Z,49.70
2023-03-13T06:45:48.673Z,49.70
2023-03-13T06:48:15.553Z,49.00
2023-03-13T06:50:42.953Z,49.00
2023-03-13T06:53:20.565Z,48.50
2023-03-13T06:55:49.078Z,48.30
2023-03-13T06:58:31.080Z,48.30
2023-03-13T07:01:09.310Z,48.00
2023-03-13T07:03:37.268Z,47.70
2023-03-13T07:06:05.583Z,47.90
2023-03-13T07:08:32.964Z,48.10
2023-03-13T07:11:02.975Z,47.90
2023-03-13T07:13:30.051Z,48.10
2023-03-13T07:16:00.249Z,47.90
2023-03-13T07:18:27.095Z,47.70
2023-03-13T07:20:59.290Z,47.20
2023-03-13T07:23:27.866Z,47.20
2023-03-13T07:25:58.448Z,47.20
2023-03-13T07:28:26.408Z,46.40
2023-03-13T07:30:53.969Z,46.30
2023-03-13T07:33:20.831Z,46.40
2023-03-13T07:35:51.813Z,46.10
2023-03-13T07:38:19.509Z,46.30
2023-03-13T07:40:50.859Z,46.00
2023-03-13T07:43:18.102Z,46.10
2023-03-13T07:45:52.880Z,46.30
2023-03-13T07:48:20.629Z,47.20
2023-03-13T07:50:47.679Z,49.20
2023-03-13T07:53:20.920Z,51.00
2023-03-13T07:56:10.349Z,52.40
2023-03-13T07:58:38.821Z,53.40
2023-03-13T08:01:11.231Z,54.00
2023-03-13T08:03:39.170Z,53.20
2023-03-13T08:06:14.352Z,53.90
2023-03-13T08:08:41.489Z,52.20
2023-03-13T08:11:11.021Z,51.80
2023-03-13T08:13:38.405Z,51.20
2023-03-13T08:16:12.787Z,50.80
2023-03-13T08:18:41.810Z,50.90
2023-03-13T08:21:11.477Z,51.00
2023-03-13T08:23:39.029Z,50.20
2023-03-13T08:26:08.377Z,50.40
2023-03-13T08:28:36.026Z,47.70
2023-03-13T08:31:13.149Z,47.40
2023-03-13T08:33:41.976Z,46.70
2023-03-13T08:36:14.884Z,46.40
2023-03-13T08:38:45.783Z,45.10
2023-03-13T08:41:14.338Z,44.70
2023-03-13T08:43:41.066Z,44.50
2023-03-13T08:46:07.899Z,45.10
2023-03-13T08:48:34.730Z,45.10
2023-03-13T08:51:07.111Z,44.50
2023-03-13T08:53:35.351Z,43.20
2023-03-13T08:56:02.688Z,42.60
2023-03-13T08:58:29.449Z,42.10
2023-03-13T09:01:02.217Z,42.60
2023-03-13T09:03:29.119Z,41.50
2023-03-13T09:05:58.135Z,41.50
2023-03-13T09:08:25.608Z,40.40
2023-03-13T09:11:13.612Z,40.40
2023-03-13T09:13:46.061Z,40.90
2023-03-13T09:16:15.790Z,40.60
2023-03-13T09:18:43.541Z,40.00
2023-03-13T09:21:21.735Z,39.30
2023-03-13T09:23:50.154Z,38.10
2023-03-13T09:26:20.896Z,37.40
2023-03-13T09:28:49.675Z,37.80
2023-03-13T09:31:18.711Z,35.90
2023-03-13T09:33:47.332Z,36.40
2023-03-13T09:36:14.510Z,35.90
2023-03-13T09:38:41.753Z,36.50
2023-03-13T09:41:17.424Z,35.80
2023-03-13T09:44:13.122Z,35.60
2023-03-13T09:47:02.847Z,34.80
2023-03-13T09:49:46.904Z,35.30
2023-03-13T09:52:36.396Z,35.30
2023-03-13T09:55:17.273Z,35.50
2023-03-13T09:57:57.450Z,36.00
2023-03-13T10:00:33.009Z,35.00
2023-03-13T10:03:07.508Z,35.40
2023-03-13T10:05:34.359Z,34.50
2023-03-13T10:08:15.399Z,34.10
2023-03-13T10:10:57.831Z,34.20
2023-03-13T10:13:32.203Z,34.00
2023-03-13T10:16:04.782Z,33.40
2023-03-13T10:18:33.237Z,33.70
2023-03-13T10:21:10.464Z,32.90
2023-03-13T10:23:40.226Z,33.40
2023-03-13T10:26:33.011Z,33.10
2023-03-13T10:29:16.887Z,33.10
2023-03-13T10:32:01.759Z,32.60
2023-03-13T10:34:44.701Z,32.80
2023-03-13T10:37:15.783Z,32.70
2023-03-13T10:39:42.560Z,32.50
2023-03-13T10:42:17.291Z,31.70
2023-03-13T10:44:45.260Z,31.90
2023-03-13T10:47:14.368Z,31.90
2023-03-13T10:49:55.297Z,32.10
2023-03-13T10:52:36.154Z,32.00
2023-03-13T10:55:06.201Z,32.20
2023-03-13T10:57:37.410Z,32.50
2023-03-13T11:00:38.892Z,33.30
2023-03-13T11:03:34.453Z,33.30
2023-03-13T11:06:03.919Z,33.40
2023-03-13T11:08:37.540Z,33.30
2023-03-13T11:11:10.948Z,33.60
2023-03-13T11:13:43.002Z,33.70
2023-03-13T11:16:20.486Z,33.70
2023-03-13T11:19:08.440Z,34.30
2023-03-13T11:21:59.909Z,34.10
2023-03-13T11:24:40.274Z,34.30
2023-03-13T11:27:31.850Z,33.70
2023-03-13T11:30:22.798Z,34.00
2023-03-13T11:33:00.491Z,34.00
2023-03-13T11:35:44.835Z,33.90
2023-03-13T11:38:23.746Z,34.40
2023-03-13T11:41:23.362Z,34.00
2023-03-13T11:44:09.063Z,34.10
2023-03-13T11:47:08.092Z,34.40
2023-03-13T11:49:59.239Z,34.40
2023-03-13T11:52:58.189Z,34.30
2023-03-13T11:55:59.735Z,34.70
2023-03-13T11:58:32.541Z,35.10
2023-03-13T12:01:12.145Z,35.20
2023-03-13T12:04:00.950Z,35.50
2023-03-13T12:06:37.917Z,35.70
2023-03-13T12:09:28.839Z,35.40
2023-03-13T12:12:04.759Z,35.50
2023-03-13T12:14:51.195Z,35.30
2023-03-13T12:18:07.498Z,35.40
2023-03-13T12:21:12.751Z,35.30
2023-03-13T12:23:39.479Z,35.50
2023-03-13T12:26:16.940Z,35.10
2023-03-13T12:28:57.009Z,35.00
2023-03-13T12:31:38.113Z,34.90
2023-03-13T12:34:14.073Z,34.90
2023-03-13T12:36:52.832Z,34.80
2023-03-13T12:39:41.601Z,35.60
2023-03-13T12:42:19.044Z,34.80
2023-03-13T12:44:46.388Z,34.50
2023-03-13T12:47:33.239Z,34.90
2023-03-13T12:50:23.388Z,34.90
2023-03-13T12:52:50.157Z,35.00
2023-03-13T12:55:52.718Z,35.50
2023-03-13T12:58:39.986Z,34.60
2023-03-13T13:01:08.169Z,34.20
2023-03-13T13:03:58.258Z,35.00
2023-03-13T13:06:25.597Z,33.80
2023-03-13T13:08:55.155Z,33.80
2023-03-13T13:11:33.895Z,33.20
2023-03-13T13:14:19.819Z,33.20
2023-03-13T13:17:29.108Z,33.10
2023-03-13T13:19:56.530Z,33.00
2023-03-13T13:22:38.309Z,33.10
2023-03-13T13:25:08.110Z,32.30
2023-03-13T13:27:37.618Z,32.30
2023-03-13T13:30:19.719Z,31.90
2023-03-13T13:32:54.621Z,32.10
2023-03-13T13:35:31.246Z,32.00
2023-03-13T13:38:19.911Z,32.20
2023-03-13T13:41:00.265Z,32.50
2023-03-13T13:43:38.150Z,31.10
2023-03-13T13:46:23.017Z,31.20
2023-03-13T13:49:13.922Z,31.60
2023-03-13T13:52:03.956Z,31.30
2023-03-13T13:54:42.878Z,31.80
2023-03-13T13:57:16.302Z,32.30
2023-03-13T13:59:44.260Z,32.40
2023-03-13T14:02:45.093Z,32.00
2023-03-13T14:05:22.661Z,31.80
2023-03-13T14:07:52.117Z,31.80
2023-03-13T14:10:28.239Z,31.10
2023-03-13T14:12:59.878Z,31.30
2023-03-13T14:15:26.608Z,31.10
2023-03-13T14:17:54.701Z,30.70
2023-03-13T14:20:24.478Z,30.70
2023-03-13T14:22:53.982Z,30.90
2023-03-13T14:25:22.663Z,30.80
2023-03-13T14:27:50.679Z,30.50
2023-03-13T14:30:19.948Z,30.00
2023-03-13T14:32:47.192Z,29.90
2023-03-13T14:35:20.785Z,29.70
2023-03-13T14:37:50.344Z,29.80
2023-03-13T14:40:29.760Z,30.00
2023-03-13T14:42:59.133Z,30.30
2023-03-13T14:45:39.620Z,30.20
2023-03-13T14:48:22.690Z,30.30
2023-03-13T14:50:59.631Z,30.40
2023-03-13T14:53:36.250Z,30.10
2023-03-13T14:56:12.389Z,31.40
2023-03-13T14:58:39.298Z,30.80
2023-03-13T15:01:30.601Z,30.80
2023-03-13T15:03:57.612Z,30.70
2023-03-13T15:06:25.842Z,31.00
2023-03-13T15:09:10.642Z,31.10
2023-03-13T15:11:43.301Z,31.20
2023-03-13T15:14:33.151Z,31.40
2023-03-13T15:16:59.927Z,31.30
2023-03-13T15:19:26.635Z,31.50
2023-03-13T15:21:54.748Z,31.30
2023-03-13T15:24:21.477Z,31.20
2023-03-13T15:26:49.299Z,31.40
2023-03-13T15:29:18.289Z,31.20
2023-03-13T15:31:45.242Z,31.10
2023-03-13T15:34:15.000Z,31.00
2023-03-13T15:36:42.627Z,30.50
2023-03-13T15:39:16.971Z,30.90
2023-03-13T15:41:43.745Z,30.90
2023-03-13T15:44:10.688Z,30.70
2023-03-13T15:46:37.653Z,30.70
2023-03-13T15:49:05.107Z,30.60
2023-03-13T15:51:33.037Z,30.90
2023-03-13T15:53:59.909Z,30.90
2023-03-13T15:56:31.280Z,30.80
2023-03-13T15:58:58.074Z,31.00
2023-03-13T16:01:25.029Z,31.10
2023-03-13T16:03:51.938Z,30.90
2023-03-13T16:06:21.473Z,31.20
2023-03-13T16:08:48.283Z,31.50
2023-03-13T16:11:17.117Z,32.10
2023-03-13T16:13:43.964Z,32.40
2023-03-13T16:16:29.459Z,32.80
2023-03-13T16:18:57.842Z,33.30
2023-03-13T16:21:29.155Z,33.60
2023-03-13T16:23:56.490Z,33.90
2023-03-13T16:26:26.165Z,34.20
2023-03-13T16:28:54.091Z,34.20
2023-03-13T16:31:22.103Z,34.50
2023-03-13T16:33:53.035Z,34.70
2023-03-13T16:36:30.196Z,34.80
2023-03-13T16:38:58.218Z,34.70
2023-03-13T16:41:27.681Z,34.80
2023-03-13T16:43:55.764Z,34.80
2023-03-13T16:46:34.593Z,34.90
2023-03-13T16:49:01.594Z,34.90
2023-03-13T16:51:28.865Z,34.40
2023-03-13T16:53:57.058Z,34.50
2023-03-13T16:56:26.828Z,35.00
2023-03-13T16:58:54.934Z,34.20
2023-03-13T17:01:24.933Z,34.20
2023-03-13T17:03:52.021Z,33.80
2023-03-13T17:06:25.437Z,34.00
2023-03-13T17:08:52.509Z,33.60
2023-03-13T17:11:21.438Z,33.70
2023-03-13T17:13:50.150Z,33.70
2023-03-13T17:16:22.839Z,33.90
2023-03-13T17:18:52.282Z,33.70
2023-03-13T17:21:28.535Z,33.90
2023-03-13T17:23:55.576Z,33.90
2023-03-13T17:26:24.089Z,34.10
2023-03-13T17:28:53.435Z,34.40
2023-03-13T17:31:21.497Z,34.60
2023-03-13T17:33:48.756Z,34.60
2023-03-13T17:36:27.420Z,35.00
2023-03-13T17:39:03.019Z,35.30
2023-03-13T17:41:32.214Z,35.40
2023-03-13T17:43:59.658Z,35.70
2023-03-13T17:46:46.560Z,35.90
2023-03-13T17:49:18.127Z,36.20
2023-03-13T17:51:46.261Z,36.60
2023-03-13T17:54:15.632Z,36.80
2023-03-13T17:56:43.975Z,37.40
2023-03-13T17:59:16.708Z,38.30
2023-03-13T18:01:44.389Z,38.10
2023-03-13T18:04:12.143Z,38.50
2023-03-13T18:06:43.266Z,38.90
2023-03-13T18:09:20.788Z,39.30
2023-03-13T18:11:48.944Z,39.70
2023-03-13T18:14:15.853Z,40.00
2023-03-13T18:16:47.920Z,40.30
2023-03-13T18:19:21.231Z,40.50
2023-03-13T18:21:50.878Z,40.60
2023-03-13T18:24:17.880Z,40.70
2023-03-13T18:26:45.613Z,40.80
2023-03-13T18:29:21.150Z,40.90
2023-03-13T18:31:48.196Z,40.70
2023-03-13T18:34:15.287Z,40.90
2023-03-13T18:36:42.325Z,40.90
2023-03-13T18:39:13.904Z,40.80
2023-03-13T18:41:40.689Z,40.90
2023-03-13T18:44:07.411Z,40.90
2023-03-13T18:46:34.709Z,41.00
2023-03-13T18:49:01.517Z,40.80
2023-03-13T18:51:28.581Z,40.80
2023-03-13T18:53:56.453Z,41.00
2023-03-13T18:56:34.391Z,41.00
2023-03-13T18:59:01.268Z,41.20
2023-03-13T19:01:30.808Z,41.30
2023-03-13T19:04:00.070Z,41.20
2023-03-13T19:06:34.992Z,41.20
2023-03-13T19:09:41.613Z,41.30
2023-03-13T19:12:05.061Z,41.30
2023-03-13T19:14:31.883Z,41.40
2023-03-13T19:16:58.656Z,41.30
2023-03-13T19:19:26.254Z,41.50
2023-03-13T19:21:56.783Z,41.40
2023-03-13T19:24:26.661Z,41.50
2023-03-13T19:26:58.829Z,41.60
2023-03-13T19:29:27.779Z,41.50
2023-03-13T19:31:54.973Z,41.30
2023-03-13T19:34:21.935Z,41.20
2023-03-13T19:36:49.730Z,41.60
2023-03-13T19:39:23.684Z,41.60
2023-03-13T19:41:51.251Z,41.50
2023-03-13T19:44:19.240Z,41.50
2023-03-13T19:46:47.111Z,41.50
2023-03-13T19:49:19.589Z,41.60
2023-03-13T19:51:47.075Z,42.00
2023-03-13T19:54:14.688Z,41.30
2023-03-13T19:56:44.177Z,41.30
2023-03-13T19:59:18.995Z,41.40
2023-03-13T20:01:45.964Z,41.60
2023-03-13T20:04:13.457Z,41.80
2023-03-13T20:06:41.430Z,41.90
2023-03-13T20:09:10.496Z,41.80
2023-03-13T20:11:38.215Z,41.80
2023-03-13T20:14:05.582Z,42.20
2023-03-13T20:16:34.475Z,42.50
2023-03-13T20:19:02.573Z,42.50
2023-03-13T20:21:31.608Z,43.30
2023-03-13T20:23:58.923Z,43.60
2023-03-13T20:26:28.338Z,43.90
2023-03-13T20:28:56.449Z,44.30
2023-03-13T20:31:29.483Z,44.60
2023-03-13T20:33:57.252Z,44.50
2023-03-13T20:36:24.830Z,44.90
2023-03-13T20:38:51.927Z,45.20
2023-03-13T20:41:24.877Z,45.20
2023-03-13T20:43:52.756Z,45.40
2023-03-13T20:46:20.372Z,45.40
2023-03-13T20:48:47.296Z,45.60
2023-03-13T20:51:14.283Z,46.00
2023-03-13T20:53:42.421Z,46.20
2023-03-13T20:56:10.548Z,46.20
2023-03-13T20:58:37.772Z,46.70
2023-03-13T21:01:06.288Z,47.20
2023-03-13T21:03:36.363Z,47.20
2023-03-13T21:06:17.853Z,47.90
2023-03-13T21:08:45.936Z,48.70
2023-03-13T21:11:23.436Z,48.60
2023-03-13T21:13:51.260Z,48.50
2023-03-13T21:16:19.893Z,48.30
2023-03-13T21:18:47.321Z,48.30
2023-03-13T21:21:18.586Z,47.90
2023-03-13T21:23:46.212Z,47.70
2023-03-13T21:26:14.205Z,47.70
2023-03-13T21:28:41.187Z,48.30
2023-03-13T21:31:14.181Z,47.60
2023-03-13T21:33:41.821Z,46.20
2023-03-13T21:36:10.077Z,45.80
2023-03-13T21:38:36.893Z,45.60
2023-03-13T21:41:12.077Z,45.40
2023-03-13T21:43:43.037Z,45.60
2023-03-13T21:46:11.965Z,45.80
2023-03-13T21:48:39.573Z,47.50
2023-03-13T21:51:07.069Z,48.90
2023-03-13T21:53:34.571Z,50.10
2023-03-13T21:56:01.608Z,51.70
2023-03-13T21:58:28.406Z,53.70
2023-03-13T22:00:56.557Z,54.30
2023-03-13T22:03:24.546Z,55.30
2023-03-13T22:05:51.356Z,56.40
2023-03-13T22:08:18.181Z,56.90
2023-03-13T22:10:49.535Z,57.70
2023-03-13T22:13:16.776Z,61.20
2023-03-13T22:15:46.264Z,63.60
2023-03-13T22:18:16.776Z,66.40
2023-03-13T22:20:43.609Z,70.00
2023-03-13T22:23:11.792Z,72.50
2023-03-13T22:25:40.488Z,75.40
2023-03-13T22:28:07.433Z,77.60
2023-03-13T22:30:34.642Z,79.20
2023-03-13T22:33:01.606Z,80.40
2023-03-13T22:35:28.384Z,81.00
2023-03-13T22:37:55.155Z,81.70
2023-03-13T22:40:21.977Z,82.50
2023-03-13T22:42:48.731Z,83.50
2023-03-13T22:45:16.025Z,83.80
2023-03-13T22:47:42.792Z,83.80
2023-03-13T22:50:11.116Z,84.20
2023-03-13T22:52:38.479Z,83.90
2023-03-13T22:55:05.582Z,84.60
2023-03-13T22:57:32.704Z,85.20
2023-03-13T23:00:00.239Z,85.70
2023-03-13T23:02:28.193Z,87.00
2023-03-13T23:04:59.426Z,87.40
2023-03-13T23:07:30.242Z,88.00
2023-03-13T23:09:58.318Z,88.50
2023-03-13T23:12:26.143Z,88.90
2023-03-13T23:14:53.186Z,89.80
2023-03-13T23:17:19.990Z,90.10
2023-03-13T23:19:46.815Z,90.40
2023-03-13T23:22:17.860Z,90.50
2023-03-13T23:24:44.919Z,90.70
2023-03-13T23:27:11.713Z,91.20
2023-03-13T23:29:39.550Z,91.10
2023-03-13T23:32:07.072Z,90.70
2023-03-13T23:34:36.179Z,87.20
2023-03-13T23:37:03.317Z,82.90
2023-03-13T23:39:30.398Z,80.40
2023-03-13T23:41:57.552Z,79.50
2023-03-13T23:44:24.411Z,82.00
2023-03-13T23:46:51.174Z,82.10
2023-03-13T23:49:18.010Z,82.50
2023-03-13T23:51:44.910Z,80.90
2023-03-13T23:54:11.685Z,78.50
2023-03-13T23:56:38.431Z,75.10
2023-03-13T23:59:05.323Z,72.80
